sensor_id;sensor_type;location;lat;lon;timestamp;pressure;altitude;pressure_sealevel;temperature;humidity
60725;BME280;59881;36.722;-4.462;2023-01-19T00:02:23;101413.66;;;6.95;55.13
60725;BME280;59881;36.722;-4.462;2023-01-19T00:04:48;101499.84;;;7.46;55.26
60725;BME280;59881;36.722;-4.462;2023-01-19T00:07:14;101492.81;;;7.47;55.23
60725;BME280;59881;36.722;-4.462;2023-01-19T00:09:39;101497.88;;;7.52;55.47
60725;BME280;59881;36.722;-4.462;2023-01-19T00:12:05;101473.13;;;7.37;55.21
60725;BME280;59881;36.722;-4.462;2023-01-19T00:14:30;101410.44;;;7.10;55.63
60725;BME280;59881;36.722;-4.462;2023-01-19T00:16:56;101491.94;;;7.69;55.03
60725;BME280;59881;36.722;-4.462;2023-01-19T00:19:22;101341.06;;;6.76;54.76
60725;BME280;59881;36.722;-4.462;2023-01-19T00:21:48;101098.63;;;4.72;54.55
60725;BME280;59881;36.722;-4.462;2023-01-19T00:24:13;101363.22;;;6.90;54.80
60725;BME280;59881;36.722;-4.462;2023-01-19T00:26:39;101441.66;;;7.37;54.96
60725;BME280;59881;36.722;-4.462;2023-01-19T00:29:09;101494.47;;;7.70;55.23
60725;BME280;59881;36.722;-4.462;2023-01-19T00:31:35;101500.78;;;7.66;54.84
60725;BME280;59881;36.722;-4.462;2023-01-19T00:34:01;101102.41;;;5.12;54.64
60725;BME280;59881;36.722;-4.462;2023-01-19T00:36:27;101464.47;;;7.35;55.06
60725;BME280;59881;36.722;-4.462;2023-01-19T00:38:53;101426.88;;;7.14;55.29
60725;BME280;59881;36.722;-4.462;2023-01-19T00:41:18;101153.09;;;4.83;54.99
60725;BME280;59881;36.722;-4.462;2023-01-19T00:44:04;101593.28;;;7.47;54.89
60725;BME280;59881;36.722;-4.462;2023-01-19T00:46:29;101456.06;;;7.49;55.21
60725;BME280;59881;36.722;-4.462;2023-01-19T00:48:55;101499.81;;;7.69;54.93
60725;BME280;59881;36.722;-4.462;2023-01-19T00:51:20;101367.72;;;6.86;54.99
60725;BME280;59881;36.722;-4.462;2023-01-19T00:53:46;101498.63;;;7.76;55.09
60725;BME280;59881;36.722;-4.462;2023-01-19T00:56:11;101395.47;;;6.92;55.08
60725;BME280;59881;36.722;-4.462;2023-01-19T00:58:37;101464.75;;;7.49;55.25
60725;BME280;59881;36.722;-4.462;2023-01-19T01:01:02;101469.22;;;7.47;55.12
60725;BME280;59881;36.722;-4.462;2023-01-19T01:03:29;101511.19;;;7.67;55.19
60725;BME280;59881;36.722;-4.462;2023-01-19T01:05:54;101448.13;;;7.28;55.43
60725;BME280;59881;36.722;-4.462;2023-01-19T01:08:20;101481.53;;;7.45;55.66
60725;BME280;59881;36.722;-4.462;2023-01-19T01:10:45;100990.78;;;4.48;55.39
60725;BME280;59881;36.722;-4.462;2023-01-19T01:13:11;101514.06;;;7.61;55.42
60725;BME280;59881;36.722;-4.462;2023-01-19T01:15:36;101607.59;;;7.39;55.50
60725;BME280;59881;36.722;-4.462;2023-01-19T01:18:02;101510.59;;;7.61;55.44
60725;BME280;59881;36.722;-4.462;2023-01-19T01:20:27;100978.78;;;4.43;55.09
60725;BME280;59881;36.722;-4.462;2023-01-19T01:22:55;101482.31;;;7.47;55.58
60725;BME280;59881;36.722;-4.462;2023-01-19T01:25:23;101507.72;;;7.67;55.25
60725;BME280;59881;36.722;-4.462;2023-01-19T01:27:49;101432.72;;;7.20;55.60
60725;BME280;59881;36.722;-4.462;2023-01-19T01:30:15;101410.44;;;7.10;55.41
60725;BME280;59881;36.722;-4.462;2023-01-19T01:32:41;101453.53;;;7.45;54.84
60725;BME280;59881;36.722;-4.462;2023-01-19T01:35:08;101492.94;;;7.66;55.08
60725;BME280;59881;36.722;-4.462;2023-01-19T01:37:35;101502.03;;;7.78;55.05
60725;BME280;59881;36.722;-4.462;2023-01-19T01:40:01;101437.41;;;7.34;55.12
60725;BME280;59881;36.722;-4.462;2023-01-19T01:42:29;101510.03;;;7.75;55.31
60725;BME280;59881;36.722;-4.462;2023-01-19T01:44:56;101480.31;;;7.54;54.95
60725;BME280;59881;36.722;-4.462;2023-01-19T01:47:33;101511.78;;;7.74;55.14
60725;BME280;59881;36.722;-4.462;2023-01-19T01:50:11;101511.09;;;7.71;55.17
60725;BME280;59881;36.722;-4.462;2023-01-19T01:52:45;101488.03;;;7.57;55.27
60725;BME280;59881;36.722;-4.462;2023-01-19T01:55:13;101500.50;;;7.72;55.00
60725;BME280;59881;36.722;-4.462;2023-01-19T01:57:43;101149.53;;;5.56;55.00
60725;BME280;59881;36.722;-4.462;2023-01-19T02:00:11;100910.59;;;4.05;54.88
60725;BME280;59881;36.722;-4.462;2023-01-19T02:02:37;101502.81;;;7.59;55.50
60725;BME280;59881;36.722;-4.462;2023-01-19T02:10:43;101512.63;;;7.54;55.34
60725;BME280;59881;36.722;-4.462;2023-01-19T02:13:33;101310.84;;;6.24;55.35
60725;BME280;59881;36.722;-4.462;2023-01-19T02:16:02;101435.72;;;7.11;55.64
60725;BME280;59881;36.722;-4.462;2023-01-19T02:18:30;101807.13;;;7.56;55.55
60725;BME280;59881;36.722;-4.462;2023-01-19T02:21:06;101524.09;;;7.52;55.80
60725;BME280;59881;36.722;-4.462;2023-01-19T02:23:53;101521.47;;;7.52;55.38
60725;BME280;59881;36.722;-4.462;2023-01-19T02:29:00;101489.66;;;7.17;55.08
60725;BME280;59881;36.722;-4.462;2023-01-19T02:31:28;101075.06;;;4.50;55.50
60725;BME280;59881;36.722;-4.462;2023-01-19T02:33:54;101532.13;;;7.03;56.11
60725;BME280;59881;36.722;-4.462;2023-01-19T02:36:24;101537.16;;;7.31;56.37
60725;BME280;59881;36.722;-4.462;2023-01-19T02:38:54;101531.97;;;7.30;56.30
60725;BME280;59881;36.722;-4.462;2023-01-19T02:41:24;101492.03;;;7.01;56.98
60725;BME280;59881;36.722;-4.462;2023-01-19T02:43:51;101535.75;;;7.22;56.55
60725;BME280;59881;36.722;-4.462;2023-01-19T02:46:17;101489.09;;;6.87;56.95
60725;BME280;59881;36.722;-4.462;2023-01-19T02:48:42;101552.84;;;7.09;56.75
60725;BME280;59881;36.722;-4.462;2023-01-19T02:51:15;101550.44;;;7.03;56.85
60725;BME280;59881;36.722;-4.462;2023-01-19T02:59:21;101561.78;;;7.03;57.29
60725;BME280;59881;36.722;-4.462;2023-01-19T03:07:46;101568.16;;;6.96;57.70
60725;BME280;59881;36.722;-4.462;2023-01-19T03:16:02;101578.19;;;6.85;57.48
60725;BME280;59881;36.722;-4.462;2023-01-19T03:18:31;101575.78;;;6.79;57.70
60725;BME280;59881;36.722;-4.462;2023-01-19T03:21:00;101571.56;;;6.75;58.26
60725;BME280;59881;36.722;-4.462;2023-01-19T03:23:30;101575.06;;;6.75;58.41
60725;BME280;59881;36.722;-4.462;2023-01-19T03:25:58;101582.97;;;6.74;58.39
60725;BME280;59881;36.722;-4.462;2023-01-19T03:28:26;101580.53;;;6.44;58.13
60725;BME280;59881;36.722;-4.462;2023-01-19T03:31:00;101496.84;;;6.17;58.74
60725;BME280;59881;36.722;-4.462;2023-01-19T03:33:32;101166.88;;;3.22;58.53
60725;BME280;59881;36.722;-4.462;2023-01-19T03:36:23;101578.44;;;6.54;58.53
60725;BME280;59881;36.722;-4.462;2023-01-19T03:38:51;101727.84;;;6.49;58.39
60725;BME280;59881;36.722;-4.462;2023-01-19T03:41:18;101082.97;;;3.41;58.47
60725;BME280;59881;36.722;-4.462;2023-01-19T03:43:47;101498.75;;;5.87;59.09
60725;BME280;59881;36.722;-4.462;2023-01-19T03:46:14;101577.22;;;6.39;59.48
60725;BME280;59881;36.722;-4.462;2023-01-19T03:48:41;101604.41;;;6.35;59.48
60725;BME280;59881;36.722;-4.462;2023-01-19T03:51:08;101581.66;;;6.37;60.23
60725;BME280;59881;36.722;-4.462;2023-01-19T03:53:35;101715.88;;;6.42;60.22
60725;BME280;59881;36.722;-4.462;2023-01-19T03:56:01;101062.69;;;3.24;59.68
60725;BME280;59881;36.722;-4.462;2023-01-19T03:58:26;101585.22;;;6.34;60.32
60725;BME280;59881;36.722;-4.462;2023-01-19T04:00:52;101586.19;;;6.32;59.99
60725;BME280;59881;36.722;-4.462;2023-01-19T04:03:18;101588.06;;;6.28;60.33
60725;BME280;59881;36.722;-4.462;2023-01-19T04:05:44;101595.09;;;6.26;60.61
60725;BME280;59881;36.722;-4.462;2023-01-19T04:08:10;101586.59;;;6.19;60.51
60725;BME280;59881;36.722;-4.462;2023-01-19T04:10:36;101530.38;;;5.79;60.35
60725;BME280;59881;36.722;-4.462;2023-01-19T04:13:02;101594.47;;;6.19;61.01
60725;BME280;59881;36.722;-4.462;2023-01-19T04:15:29;101566.09;;;6.07;60.92
60725;BME280;59881;36.722;-4.462;2023-01-19T04:17:58;101594.22;;;6.27;61.61
60725;BME280;59881;36.722;-4.462;2023-01-19T04:20:24;101161.13;;;3.70;61.27
60725;BME280;59881;36.722;-4.462;2023-01-19T04:22:51;101582.19;;;6.21;61.09
60725;BME280;59881;36.722;-4.462;2023-01-19T04:25:17;101528.88;;;5.72;61.08
60725;BME280;59881;36.722;-4.462;2023-01-19T04:27:42;101494.19;;;5.67;60.77
60725;BME280;59881;36.722;-4.462;2023-01-19T04:30:08;101573.75;;;6.13;61.19
60725;BME280;59881;36.722;-4.462;2023-01-19T04:32:34;101126.38;;;3.42;60.97
60725;BME280;59881;36.722;-4.462;2023-01-19T04:35:00;101566.63;;;6.17;61.06
60725;BME280;59881;36.722;-4.462;2023-01-19T04:37:25;101611.19;;;6.40;61.19
60725;BME280;59881;36.722;-4.462;2023-01-19T04:39:51;101147.59;;;3.58;61.01
60725;BME280;59881;36.722;-4.462;2023-01-19T04:42:16;101556.03;;;5.95;61.34
60725;BME280;59881;36.722;-4.462;2023-01-19T04:44:42;101116.81;;;3.42;61.64
60725;BME280;59881;36.722;-4.462;2023-01-19T04:47:07;100765.06;;;1.23;61.20
60725;BME280;59881;36.722;-4.462;2023-01-19T04:49:33;101122.19;;;3.36;61.42
60725;BME280;59881;36.722;-4.462;2023-01-19T04:52:02;101591.16;;;6.14;61.43
60725;BME280;59881;36.722;-4.462;2023-01-19T04:54:28;101598.88;;;6.17;61.52
60725;BME280;59881;36.722;-4.462;2023-01-19T04:56:54;101602.38;;;6.18;61.33
60725;BME280;59881;36.722;-4.462;2023-01-19T04:59:20;101637.63;;;6.33;61.80
60725;BME280;59881;36.722;-4.462;2023-01-19T05:01:45;100707.88;;;0.62;60.93
60725;BME280;59881;36.722;-4.462;2023-01-19T05:04:11;101645.69;;;6.27;61.18
60725;BME280;59881;36.722;-4.462;2023-01-19T05:06:36;101470.53;;;5.17;61.27
60725;BME280;59881;36.722;-4.462;2023-01-19T05:09:02;101649.38;;;6.21;61.77
60725;BME280;59881;36.722;-4.462;2023-01-19T05:11:28;101610.97;;;5.95;62.04
60725;BME280;59881;36.722;-4.462;2023-01-19T05:13:53;101615.44;;;5.91;62.20
60725;BME280;59881;36.722;-4.462;2023-01-19T05:16:18;101647.13;;;6.09;61.88
60725;BME280;59881;36.722;-4.462;2023-01-19T05:18:44;101632.94;;;5.89;61.95
60725;BME280;59881;36.722;-4.462;2023-01-19T05:21:09;101661.31;;;6.01;61.84
60725;BME280;59881;36.722;-4.462;2023-01-19T05:23:35;101668.31;;;6.01;61.77
60725;BME280;59881;36.722;-4.462;2023-01-19T05:26:01;101602.41;;;5.62;61.71
60725;BME280;59881;36.722;-4.462;2023-01-19T05:28:31;101191.63;;;3.06;61.95
60725;BME280;59881;36.722;-4.462;2023-01-19T05:30:57;101671.09;;;5.96;61.90
60725;BME280;59881;36.722;-4.462;2023-01-19T05:33:22;101571.81;;;5.37;61.80
60725;BME280;59881;36.722;-4.462;2023-01-19T05:35:49;101135.75;;;2.54;61.74
60725;BME280;59881;36.722;-4.462;2023-01-19T05:38:15;101682.75;;;5.85;61.92
60725;BME280;59881;36.722;-4.462;2023-01-19T05:40:41;101753.88;;;5.68;62.12
60725;BME280;59881;36.722;-4.462;2023-01-19T05:43:06;101658.56;;;5.48;62.47
60725;BME280;59881;36.722;-4.462;2023-01-19T05:45:32;101692.25;;;5.59;62.79
60725;BME280;59881;36.722;-4.462;2023-01-19T05:47:58;101695.81;;;5.56;63.21
60725;BME280;59881;36.722;-4.462;2023-01-19T05:50:24;101697.56;;;5.56;62.13
60725;BME280;59881;36.722;-4.462;2023-01-19T05:52:50;101702.88;;;5.53;62.80
60725;BME280;59881;36.722;-4.462;2023-01-19T05:55:19;101716.00;;;5.51;63.01
60725;BME280;59881;36.722;-4.462;2023-01-19T05:57:44;101709.19;;;5.46;63.21
60725;BME280;59881;36.722;-4.462;2023-01-19T06:00:10;101712.75;;;5.43;63.62
60725;BME280;59881;36.722;-4.462;2023-01-19T06:02:36;101616.88;;;4.84;62.86
60725;BME280;59881;36.722;-4.462;2023-01-19T06:05:02;101677.88;;;5.13;63.10
60725;BME280;59881;36.722;-4.462;2023-01-19T06:07:28;101687.19;;;5.23;63.59
60725;BME280;59881;36.722;-4.462;2023-01-19T06:09:54;101689.81;;;5.23;63.45
60725;BME280;59881;36.722;-4.462;2023-01-19T06:12:19;101724.34;;;5.33;63.95
60725;BME280;59881;36.722;-4.462;2023-01-19T06:14:45;101308.59;;;2.78;63.84
60725;BME280;59881;36.722;-4.462;2023-01-19T06:17:10;101243.69;;;2.37;63.67
60725;BME280;59881;36.722;-4.462;2023-01-19T06:19:36;101661.13;;;4.89;63.82
60725;BME280;59881;36.722;-4.462;2023-01-19T06:22:01;101647.47;;;4.81;63.80
60725;BME280;59881;36.722;-4.462;2023-01-19T06:24:27;101627.91;;;4.63;63.85
60725;BME280;59881;36.722;-4.462;2023-01-19T06:26:53;101684.69;;;4.87;63.54
60725;BME280;59881;36.722;-4.462;2023-01-19T06:29:19;101666.75;;;4.75;64.74
60725;BME280;59881;36.722;-4.462;2023-01-19T06:31:46;101789.47;;;5.08;64.72
60725;BME280;59881;36.722;-4.462;2023-01-19T06:34:12;101227.13;;;2.02;64.20
60725;BME280;59881;36.722;-4.462;2023-01-19T06:36:37;101546.25;;;3.56;64.49
60725;BME280;59881;36.722;-4.462;2023-01-19T06:39:04;101732.06;;;5.06;65.45
60725;BME280;59881;36.722;-4.462;2023-01-19T06:41:33;101499.91;;;3.70;64.75
60725;BME280;59881;36.722;-4.462;2023-01-19T06:43:58;100957.09;;;0.47;65.07
60725;BME280;59881;36.722;-4.462;2023-01-19T06:46:24;101672.75;;;4.79;65.45
60725;BME280;59881;36.722;-4.462;2023-01-19T06:48:50;101734.53;;;5.11;65.23
60725;BME280;59881;36.722;-4.462;2023-01-19T06:51:16;101634.31;;;4.51;65.33
60725;BME280;59881;36.722;-4.462;2023-01-19T06:53:41;101258.69;;;2.24;65.08
60725;BME280;59881;36.722;-4.462;2023-01-19T06:56:07;101775.47;;;4.40;65.23
60725;BME280;59881;36.722;-4.462;2023-01-19T06:58:34;101720.31;;;4.90;65.08
60725;BME280;59881;36.722;-4.462;2023-01-19T07:01:06;101751.19;;;5.07;65.16
60725;BME280;59881;36.722;-4.462;2023-01-19T07:03:33;101758.19;;;5.05;65.66
60725;BME280;59881;36.722;-4.462;2023-01-19T07:05:59;101767.88;;;5.03;65.65
60725;BME280;59881;36.722;-4.462;2023-01-19T07:08:27;101772.16;;;5.05;65.50
60725;BME280;59881;36.722;-4.462;2023-01-19T07:11:01;101762.19;;;5.18;65.92
60725;BME280;59881;36.722;-4.462;2023-01-19T07:13:29;101766.13;;;5.34;65.03
60725;BME280;59881;36.722;-4.462;2023-01-19T07:15:55;101960.13;;;5.44;65.13
60725;BME280;59881;36.722;-4.462;2023-01-19T07:18:20;101775.31;;;5.49;64.18
60725;BME280;59881;36.722;-4.462;2023-01-19T07:20:46;102004.31;;;5.53;64.89
60725;BME280;59881;36.722;-4.462;2023-01-19T07:23:14;101279.44;;;2.63;63.97
60725;BME280;59881;36.722;-4.462;2023-01-19T07:25:40;101112.31;;;1.49;63.78
60725;BME280;59881;36.722;-4.462;2023-01-19T07:28:05;101727.53;;;5.13;63.64
60725;BME280;59881;36.722;-4.462;2023-01-19T07:30:31;101108.06;;;1.43;63.26
60725;BME280;59881;36.722;-4.462;2023-01-19T07:32:57;101863.28;;;5.81;63.56
60725;BME280;59881;36.722;-4.462;2023-01-19T07:35:23;101781.13;;;5.89;63.65
60725;BME280;59881;36.722;-4.462;2023-01-19T07:37:49;101678.94;;;5.37;63.08
60725;BME280;59881;36.722;-4.462;2023-01-19T07:40:15;101789.03;;;6.17;62.38
60725;BME280;59881;36.722;-4.462;2023-01-19T07:42:47;101781.72;;;7.33;61.94
60725;BME280;59881;36.722;-4.462;2023-01-19T07:45:15;101783.09;;;9.42;57.97
60725;BME280;59881;36.722;-4.462;2023-01-19T07:47:45;101543.34;;;9.86;52.33
60725;BME280;59881;36.722;-4.462;2023-01-19T07:50:13;101771.63;;;12.55;47.34
60725;BME280;59881;36.722;-4.462;2023-01-19T07:52:39;101284.78;;;10.62;44.12
60725;BME280;59881;36.722;-4.462;2023-01-19T07:55:05;101764.81;;;14.52;41.95
60725;BME280;59881;36.722;-4.462;2023-01-19T07:57:31;101755.44;;;15.39;39.58
60725;BME280;59881;36.722;-4.462;2023-01-19T07:59:57;101395.75;;;13.71;37.79
60725;BME280;59881;36.722;-4.462;2023-01-19T08:02:22;101714.19;;;16.20;36.40
60725;BME280;59881;36.722;-4.462;2023-01-19T08:04:48;101730.91;;;16.81;35.31
60725;BME280;59881;36.722;-4.462;2023-01-19T08:07:13;101724.44;;;17.42;34.31
60725;BME280;59881;36.722;-4.462;2023-01-19T08:09:39;101757.16;;;18.21;33.18
60725;BME280;59881;36.722;-4.462;2023-01-19T08:12:05;101601.22;;;17.83;31.99
60725;BME280;59881;36.722;-4.462;2023-01-19T08:14:30;101442.34;;;17.38;31.25
60725;BME280;59881;36.722;-4.462;2023-01-19T08:17:02;101492.38;;;18.09;30.36
60725;BME280;59881;36.722;-4.462;2023-01-19T08:19:28;101772.09;;;20.21;29.35
60725;BME280;59881;36.722;-4.462;2023-01-19T08:21:54;101722.53;;;20.26;28.96
60725;BME280;59881;36.722;-4.462;2023-01-19T08:24:21;101205.69;;;17.65;27.72
60725;BME280;59881;36.722;-4.462;2023-01-19T08:26:49;101492.16;;;20.20;27.01
60725;BME280;59881;36.722;-4.462;2023-01-19T08:29:15;101708.94;;;22.35;26.15
60725;BME280;59881;36.722;-4.462;2023-01-19T08:31:41;101734.72;;;23.16;25.10
60725;BME280;59881;36.722;-4.462;2023-01-19T08:34:06;101713.25;;;23.58;24.68
60725;BME280;59881;36.722;-4.462;2023-01-19T08:36:32;101639.28;;;23.70;23.83
60725;BME280;59881;36.722;-4.462;2023-01-19T08:38:58;101533.22;;;23.57;23.00
60725;BME280;59881;36.722;-4.462;2023-01-19T08:41:24;101730.00;;;25.34;22.19
60725;BME280;59881;36.722;-4.462;2023-01-19T08:43:50;101753.88;;;25.93;21.85
60725;BME280;59881;36.722;-4.462;2023-01-19T08:46:15;101712.53;;;26.15;21.31
60725;BME280;59881;36.722;-4.462;2023-01-19T08:48:42;101153.84;;;23.10;20.69
60725;BME280;59881;36.722;-4.462;2023-01-19T08:51:10;101737.09;;;27.04;20.37
60725;BME280;59881;36.722;-4.462;2023-01-19T08:53:37;101331.94;;;25.02;20.08
60725;BME280;59881;36.722;-4.462;2023-01-19T08:56:03;101710.09;;;27.71;19.18
60725;BME280;59881;36.722;-4.462;2023-01-19T08:58:28;101730.31;;;28.47;18.75
60725;BME280;59881;36.722;-4.462;2023-01-19T09:00:54;101687.78;;;28.76;18.12
60725;BME280;59881;36.722;-4.462;2023-01-19T09:03:20;101449.78;;;27.67;18.11
60725;BME280;59881;36.722;-4.462;2023-01-19T09:05:47;101403.28;;;27.85;17.60
60725;BME280;59881;36.722;-4.462;2023-01-19T09:08:13;101757.16;;;30.37;16.86
60725;BME280;59881;36.722;-4.462;2023-01-19T09:10:44;101806.75;;;30.65;16.80
60725;BME280;59881;36.722;-4.462;2023-01-19T09:13:11;101447.59;;;29.15;16.12
60725;BME280;59881;36.722;-4.462;2023-01-19T09:15:38;101754.78;;;31.40;16.23
60725;BME280;59881;36.722;-4.462;2023-01-19T09:18:06;101742.22;;;31.32;15.76
60725;BME280;59881;36.722;-4.462;2023-01-19T09:20:32;101598.59;;;31.28;15.50
60725;BME280;59881;36.722;-4.462;2023-01-19T09:22:59;101344.00;;;30.37;14.89
60725;BME280;59881;36.722;-4.462;2023-01-19T09:25:25;101591.00;;;32.69;14.57
60725;BME280;59881;36.722;-4.462;2023-01-19T09:27:50;101767.63;;;34.03;13.75
60725;BME280;59881;36.722;-4.462;2023-01-19T09:30:17;101438.09;;;32.45;14.10
60725;BME280;59881;36.722;-4.462;2023-01-19T09:32:43;101769.63;;;35.15;12.66
60725;BME280;59881;36.722;-4.462;2023-01-19T09:35:10;101385.91;;;33.14;13.22
60725;BME280;59881;36.722;-4.462;2023-01-19T09:37:35;101717.59;;;35.84;12.34
60725;BME280;59881;36.722;-4.462;2023-01-19T09:40:01;101652.69;;;36.18;12.02
60725;BME280;59881;36.722;-4.462;2023-01-19T09:42:54;101776.56;;;37.17;11.71
60725;BME280;59881;36.722;-4.462;2023-01-19T09:45:48;101754.91;;;37.64;11.51
60725;BME280;59881;36.722;-4.462;2023-01-19T09:49:04;101785.22;;;37.97;10.48
60725;BME280;59881;36.722;-4.462;2023-01-19T09:51:09;101774.31;;;38.39;10.59
60725;BME280;59881;36.722;-4.462;2023-01-19T09:56:41;101746.91;;;39.45;9.93
60725;BME280;59881;36.722;-4.462;2023-01-19T09:59:22;101782.66;;;40.80;9.39
60725;BME280;59881;36.722;-4.462;2023-01-19T10:01:55;101782.09;;;41.63;8.98
60725;BME280;59881;36.722;-4.462;2023-01-19T10:04:33;101793.66;;;42.15;8.36
60725;BME280;59881;36.722;-4.462;2023-01-19T10:07:07;101571.97;;;41.13;8.40
60725;BME280;59881;36.722;-4.462;2023-01-19T10:12:25;101271.00;;;40.19;7.90
60725;BME280;59881;36.722;-4.462;2023-01-19T10:15:10;101781.66;;;44.45;7.49
60725;BME280;59881;36.722;-4.462;2023-01-19T10:20:37;101762.03;;;45.38;6.90
60725;BME280;59881;36.722;-4.462;2023-01-19T10:25:53;101418.75;;;43.99;6.15
60725;BME280;59881;36.722;-4.462;2023-01-19T10:28:22;101475.38;;;44.39;5.97
60725;BME280;59881;36.722;-4.462;2023-01-19T10:30:50;101532.19;;;44.83;5.81
60725;BME280;59881;36.722;-4.462;2023-01-19T10:33:18;101823.38;;;46.51;5.79
60725;BME280;59881;36.722;-4.462;2023-01-19T10:35:43;101723.56;;;46.22;5.44
60725;BME280;59881;36.722;-4.462;2023-01-19T10:38:12;101702.94;;;46.32;6.36
60725;BME280;59881;36.722;-4.462;2023-01-19T10:40:47;101756.59;;;46.37;6.01
60725;BME280;59881;36.722;-4.462;2023-01-19T10:43:39;101776.34;;;46.58;5.99
60725;BME280;59881;36.722;-4.462;2023-01-19T10:46:15;101759.66;;;46.36;5.75
60725;BME280;59881;36.722;-4.462;2023-01-19T10:48:42;101769.56;;;46.42;6.26
60725;BME280;59881;36.722;-4.462;2023-01-19T10:51:09;101703.47;;;45.43;6.01
60725;BME280;59881;36.722;-4.462;2023-01-19T10:53:36;101464.88;;;43.07;6.70
60725;BME280;59881;36.722;-4.462;2023-01-19T10:56:15;101702.44;;;44.61;6.71
60725;BME280;59881;36.722;-4.462;2023-01-19T10:58:41;101753.00;;;45.05;6.65
60725;BME280;59881;36.722;-4.462;2023-01-19T11:03:38;101754.53;;;44.56;7.03
60725;BME280;59881;36.722;-4.462;2023-01-19T11:06:31;101593.00;;;40.44;7.60
60725;BME280;59881;36.722;-4.462;2023-01-19T11:09:18;101641.53;;;30.14;13.57
60725;BME280;59881;36.722;-4.462;2023-01-19T11:11:47;101748.19;;;23.92;18.50
60725;BME280;59881;36.722;-4.462;2023-01-19T11:14:17;101689.19;;;19.61;22.62
60725;BME280;59881;36.722;-4.462;2023-01-19T11:16:52;101780.69;;;18.27;25.65
60725;BME280;59881;36.722;-4.462;2023-01-19T11:19:20;101787.34;;;17.09;28.07
60725;BME280;59881;36.722;-4.462;2023-01-19T11:21:48;100768.88;;;10.12;28.89
60725;BME280;59881;36.722;-4.462;2023-01-19T11:24:14;101791.19;;;15.84;29.81
60725;BME280;59881;36.722;-4.462;2023-01-19T11:26:49;101772.06;;;15.41;30.65
60725;BME280;59881;36.722;-4.462;2023-01-19T11:29:24;101773.25;;;15.11;31.20
60725;BME280;59881;36.722;-4.462;2023-01-19T11:31:52;101775.75;;;14.87;31.36
60725;BME280;59881;36.722;-4.462;2023-01-19T11:34:34;101771.72;;;14.68;31.76
60725;BME280;59881;36.722;-4.462;2023-01-19T11:37:02;101718.81;;;14.25;31.96
60725;BME280;59881;36.722;-4.462;2023-01-19T11:39:29;100969.50;;;9.59;32.30
60725;BME280;59881;36.722;-4.462;2023-01-19T11:41:58;101663.19;;;13.71;32.27
60725;BME280;59881;36.722;-4.462;2023-01-19T11:44:29;101086.59;;;10.26;32.70
60725;BME280;59881;36.722;-4.462;2023-01-19T11:46:58;101743.09;;;14.19;32.77
60725;BME280;59881;36.722;-4.462;2023-01-19T11:50:05;101749.63;;;14.14;33.08
60725;BME280;59881;36.722;-4.462;2023-01-19T11:52:27;101801.63;;;14.02;32.84
60725;BME280;59881;36.722;-4.462;2023-01-19T11:55:11;101725.34;;;13.37;33.02
60725;BME280;59881;36.722;-4.462;2023-01-19T11:57:49;101533.47;;;12.74;32.96
60725;BME280;59881;36.722;-4.462;2023-01-19T12:02:46;101490.34;;;12.16;33.31
60725;BME280;59881;36.722;-4.462;2023-01-19T12:05:15;101118.16;;;9.96;32.77
60725;BME280;59881;36.722;-4.462;2023-01-19T12:07:44;101711.16;;;13.52;33.17
60725;BME280;59881;36.722;-4.462;2023-01-19T12:10:37;101712.28;;;13.48;33.51
60725;BME280;59881;36.722;-4.462;2023-01-19T12:13:09;101649.94;;;13.15;33.31
60725;BME280;59881;36.722;-4.462;2023-01-19T12:15:42;101627.16;;;12.98;33.47
60725;BME280;59881;36.722;-4.462;2023-01-19T12:18:18;101699.81;;;13.50;33.56
60725;BME280;59881;36.722;-4.462;2023-01-19T12:20:49;101587.28;;;12.87;33.58
60725;BME280;59881;36.722;-4.462;2023-01-19T12:28:46;101465.69;;;12.15;33.25
60725;BME280;59881;36.722;-4.462;2023-01-19T12:31:20;101817.34;;;13.33;33.50
60725;BME280;59881;36.722;-4.462;2023-01-19T12:33:46;101663.72;;;13.35;33.62
60725;BME280;59881;36.722;-4.462;2023-01-19T12:39:18;101660.97;;;13.36;33.93
60725;BME280;59881;36.722;-4.462;2023-01-19T12:41:44;101491.28;;;12.29;33.91
60725;BME280;59881;36.722;-4.462;2023-01-19T12:46:41;101655.31;;;13.42;33.91
60725;BME280;59881;36.722;-4.462;2023-01-19T12:51:49;101187.88;;;10.81;33.74
60725;BME280;59881;36.722;-4.462;2023-01-19T12:54:28;101602.75;;;13.36;34.05
60725;BME280;59881;36.722;-4.462;2023-01-19T12:57:05;101657.88;;;13.44;34.11
60725;BME280;59881;36.722;-4.462;2023-01-19T12:59:36;101671.38;;;13.39;34.33
60725;BME280;59881;36.722;-4.462;2023-01-19T13:21:40;101604.25;;;13.40;33.59
60725;BME280;59881;36.722;-4.462;2023-01-19T13:24:16;101591.78;;;13.42;33.77
60725;BME280;59881;36.722;-4.462;2023-01-19T13:29:27;101517.81;;;13.12;33.78
60725;BME280;59881;36.722;-4.462;2023-01-19T13:32:01;101100.88;;;10.52;33.79
60725;BME280;59881;36.722;-4.462;2023-01-19T13:34:40;101583.09;;;13.40;33.64
60725;BME280;59881;36.722;-4.462;2023-01-19T13:37:15;101491.63;;;12.80;34.00
60725;BME280;59881;36.722;-4.462;2023-01-19T13:39:43;101473.50;;;12.74;33.67
60725;BME280;59881;36.722;-4.462;2023-01-19T13:42:18;101403.03;;;12.46;33.71
60725;BME280;59881;36.722;-4.462;2023-01-19T13:44:51;101579.75;;;13.51;33.63
60725;BME280;59881;36.722;-4.462;2023-01-19T13:47:22;101578.69;;;13.54;33.61
60725;BME280;59881;36.722;-4.462;2023-01-19T13:49:50;101568.94;;;13.54;33.13
60725;BME280;59881;36.722;-4.462;2023-01-19T13:52:24;101086.41;;;10.60;33.17
60725;BME280;59881;36.722;-4.462;2023-01-19T14:02:37;101033.72;;;10.45;32.23
60725;BME280;59881;36.722;-4.462;2023-01-19T14:07:47;101512.97;;;13.33;32.10
60725;BME280;59881;36.722;-4.462;2023-01-19T14:10:14;101560.63;;;13.60;32.17
60725;BME280;59881;36.722;-4.462;2023-01-19T14:12:42;101393.50;;;12.43;31.91
60725;BME280;59881;36.722;-4.462;2023-01-19T14:15:11;101418.81;;;12.75;31.96
60725;BME280;59881;36.722;-4.462;2023-01-19T14:17:39;101540.59;;;13.56;32.04
60725;BME280;59881;36.722;-4.462;2023-01-19T14:20:06;101405.59;;;12.75;32.10
60725;BME280;59881;36.722;-4.462;2023-01-19T14:22:51;101540.28;;;13.61;32.06